sensor_id;sensor_type;location;lat;lon;timestamp;P1;durP1;ratioP1;P2;durP2;ratioP2
12925;SDS011;6529;50.566;9.774;2024-01-10T00:01:43;25.63;;;13.07;;
12925;SDS011;6529;50.566;9.774;2024-01-10T00:04:08;23.17;;;11.37;;
12925;SDS011;6529;50.566;9.774;2024-01-10T00:06:34;25.43;;;11.97;;
12925;SDS011;6529;50.566;9.774;2024-01-10T00:09:00;29.63;;;12.10;;
12925;SDS011;6529;50.566;9.774;2024-01-10T00:11:25;23.07;;;11.57;;
12925;SDS011;6529;50.566;9.774;2024-01-10T00:13:51;23.60;;;12.03;;
12925;SDS011;6529;50.566;9.774;2024-01-10T00:16:16;24.13;;;11.63;;
12925;SDS011;6529;50.566;9.774;2024-01-10T00:18:42;25.03;;;12.33;;
12925;SDS011;6529;50.566;9.774;2024-01-10T00:21:08;21.60;;;10.67;;
12925;SDS011;6529;50.566;9.774;2024-01-10T00:23:35;25.57;;;11.93;;
12925;SDS011;6529;50.566;9.774;2024-01-10T00:26:00;29.53;;;14.67;;
12925;SDS011;6529;50.566;9.774;2024-01-10T00:28:26;22.20;;;11.17;;
12925;SDS011;6529;50.566;9.774;2024-01-10T00:30:51;26.07;;;13.27;;
12925;SDS011;6529;50.566;9.774;2024-01-10T00:33:17;27.60;;;12.37;;
12925;SDS011;6529;50.566;9.774;2024-01-10T00:35:43;27.47;;;13.37;;
12925;SDS011;6529;50.566;9.774;2024-01-10T00:38:08;27.50;;;12.90;;
12925;SDS011;6529;50.566;9.774;2024-01-10T00:40:34;27.93;;;13.30;;
12925;SDS011;6529;50.566;9.774;2024-01-10T00:43:00;28.03;;;12.67;;
12925;SDS011;6529;50.566;9.774;2024-01-10T00:45:26;25.40;;;12.30;;
12925;SDS011;6529;50.566;9.774;2024-01-10T00:47:52;20.50;;;10.93;;
12925;SDS011;6529;50.566;9.774;2024-01-10T00:50:17;17.87;;;9.23;;
12925;SDS011;6529;50.566;9.774;2024-01-10T00:52:46;27.10;;;13.00;;
12925;SDS011;6529;50.566;9.774;2024-01-10T00:55:11;25.17;;;13.53;;
12925;SDS011;6529;50.566;9.774;2024-01-10T00:57:37;27.23;;;13.17;;
12925;SDS011;6529;50.566;9.774;2024-01-10T01:00:07;31.03;;;13.80;;
12925;SDS011;6529;50.566;9.774;2024-01-10T01:02:34;27.63;;;13.13;;
12925;SDS011;6529;50.566;9.774;2024-01-10T01:05:00;26.67;;;12.17;;
12925;SDS011;6529;50.566;9.774;2024-01-10T01:07:27;28.80;;;12.43;;
12925;SDS011;6529;50.566;9.774;2024-01-10T01:09:52;28.37;;;12.80;;
12925;SDS011;6529;50.566;9.774;2024-01-10T01:12:18;19.13;;;10.50;;
12925;SDS011;6529;50.566;9.774;2024-01-10T01:14:43;26.80;;;12.23;;
12925;SDS011;6529;50.566;9.774;2024-01-10T01:17:09;25.77;;;12.93;;
12925;SDS011;6529;50.566;9.774;2024-01-10T01:19:34;26.23;;;12.90;;
12925;SDS011;6529;50.566;9.774;2024-01-10T01:22:00;25.03;;;12.03;;
12925;SDS011;6529;50.566;9.774;2024-01-10T01:24:26;25.73;;;12.83;;
12925;SDS011;6529;50.566;9.774;2024-01-10T01:26:51;26.17;;;12.40;;
12925;SDS011;6529;50.566;9.774;2024-01-10T01:29:17;27.00;;;13.23;;
12925;SDS011;6529;50.566;9.774;2024-01-10T01:31:43;28.17;;;14.00;;
12925;SDS011;6529;50.566;9.774;2024-01-10T01:34:08;32.30;;;14.17;;
12925;SDS011;6529;50.566;9.774;2024-01-10T01:36:34;27.77;;;13.07;;
12925;SDS011;6529;50.566;9.774;2024-01-10T01:38:59;27.67;;;13.60;;
12925;SDS011;6529;50.566;9.774;2024-01-10T01:41:25;28.80;;;13.93;;
12925;SDS011;6529;50.566;9.774;2024-01-10T01:43:50;24.47;;;10.87;;
12925;SDS011;6529;50.566;9.774;2024-01-10T01:46:16;29.00;;;13.57;;
12925;SDS011;6529;50.566;9.774;2024-01-10T01:48:42;25.77;;;13.27;;
12925;SDS011;6529;50.566;9.774;2024-01-10T01:51:08;27.27;;;13.03;;
12925;SDS011;6529;50.566;9.774;2024-01-10T01:53:35;29.53;;;13.20;;
12925;SDS011;6529;50.566;9.774;2024-01-10T01:56:02;27.33;;;13.60;;
12925;SDS011;6529;50.566;9.774;2024-01-10T01:58:33;27.00;;;12.53;;
12925;SDS011;6529;50.566;9.774;2024-01-10T02:00:59;30.10;;;13.20;;
12925;SDS011;6529;50.566;9.774;2024-01-10T02:03:27;25.30;;;13.67;;
12925;SDS011;6529;50.566;9.774;2024-01-10T02:05:52;31.30;;;13.80;;
12925;SDS011;6529;50.566;9.774;2024-01-10T02:08:19;28.27;;;14.13;;
12925;SDS011;6529;50.566;9.774;2024-01-10T02:10:45;29.07;;;13.33;;
12925;SDS011;6529;50.566;9.774;2024-01-10T02:13:10;30.17;;;13.20;;
12925;SDS011;6529;50.566;9.774;2024-01-10T02:15:37;27.77;;;12.27;;
12925;SDS011;6529;50.566;9.774;2024-01-10T02:18:03;30.10;;;13.40;;
12925;SDS011;6529;50.566;9.774;2024-01-10T02:20:30;27.43;;;14.07;;
12925;SDS011;6529;50.566;9.774;2024-01-10T02:22:56;33.47;;;13.80;;
12925;SDS011;6529;50.566;9.774;2024-01-10T02:25:22;30.70;;;13.40;;
12925;SDS011;6529;50.566;9.774;2024-01-10T02:27:47;29.60;;;14.63;;
12925;SDS011;6529;50.566;9.774;2024-01-10T02:30:13;26.90;;;14.20;;
12925;SDS011;6529;50.566;9.774;2024-01-10T02:32:39;30.33;;;13.83;;
12925;SDS011;6529;50.566;9.774;2024-01-10T02:35:05;30.57;;;14.60;;
12925;SDS011;6529;50.566;9.774;2024-01-10T02:37:31;27.03;;;12.00;;
12925;SDS011;6529;50.566;9.774;2024-01-10T02:39:57;31.30;;;13.97;;
12925;SDS011;6529;50.566;9.774;2024-01-10T02:42:22;32.13;;;14.17;;
12925;SDS011;6529;50.566;9.774;2024-01-10T02:44:48;26.73;;;13.13;;
12925;SDS011;6529;50.566;9.774;2024-01-10T02:47:13;28.00;;;14.03;;
12925;SDS011;6529;50.566;9.774;2024-01-10T02:49:39;32.57;;;14.60;;
12925;SDS011;6529;50.566;9.774;2024-01-10T02:52:05;29.83;;;13.90;;
12925;SDS011;6529;50.566;9.774;2024-01-10T02:54:30;32.03;;;14.90;;
12925;SDS011;6529;50.566;9.774;2024-01-10T02:56:56;28.47;;;13.90;;
12925;SDS011;6529;50.566;9.774;2024-01-10T02:59:21;29.87;;;14.27;;
12925;SDS011;6529;50.566;9.774;2024-01-10T03:01:47;30.97;;;13.83;;
12925;SDS011;6529;50.566;9.774;2024-01-10T03:04:12;31.30;;;14.57;;
12925;SDS011;6529;50.566;9.774;2024-01-10T03:06:38;27.40;;;13.77;;
12925;SDS011;6529;50.566;9.774;2024-01-10T03:09:03;30.33;;;14.07;;
12925;SDS011;6529;50.566;9.774;2024-01-10T03:11:29;28.80;;;13.50;;
12925;SDS011;6529;50.566;9.774;2024-01-10T03:14:29;33.47;;;13.50;;
12925;SDS011;6529;50.566;9.774;2024-01-10T03:16:47;31.03;;;13.37;;
12925;SDS011;6529;50.566;9.774;2024-01-10T03:19:13;24.70;;;12.60;;
12925;SDS011;6529;50.566;9.774;2024-01-10T03:21:40;26.27;;;13.30;;
12925;SDS011;6529;50.566;9.774;2024-01-10T03:24:05;25.63;;;12.83;;
12925;SDS011;6529;50.566;9.774;2024-01-10T03:26:31;32.07;;;13.73;;
12925;SDS011;6529;50.566;9.774;2024-01-10T03:28:57;29.30;;;14.17;;
12925;SDS011;6529;50.566;9.774;2024-01-10T03:31:23;26.03;;;14.10;;
12925;SDS011;6529;50.566;9.774;2024-01-10T03:33:49;30.47;;;14.37;;
12925;SDS011;6529;50.566;9.774;2024-01-10T03:36:16;24.20;;;12.57;;
12925;SDS011;6529;50.566;9.774;2024-01-10T03:38:42;33.10;;;14.20;;
12925;SDS011;6529;50.566;9.774;2024-01-10T03:41:18;28.50;;;13.70;;
12925;SDS011;6529;50.566;9.774;2024-01-10T03:43:44;30.97;;;13.30;;
12925;SDS011;6529;50.566;9.774;2024-01-10T03:46:10;19.00;;;10.17;;
12925;SDS011;6529;50.566;9.774;2024-01-10T03:48:36;35.90;;;14.33;;
12925;SDS011;6529;50.566;9.774;2024-01-10T03:51:03;35.10;;;15.07;;
12925;SDS011;6529;50.566;9.774;2024-01-10T03:53:29;29.07;;;13.13;;
12925;SDS011;6529;50.566;9.774;2024-01-10T03:55:55;30.20;;;14.47;;
12925;SDS011;6529;50.566;9.774;2024-01-10T03:58:21;26.70;;;14.13;;
12925;SDS011;6529;50.566;9.774;2024-01-10T04:00:47;25.60;;;12.93;;
12925;SDS011;6529;50.566;9.774;2024-01-10T04:03:12;30.10;;;12.87;;
12925;SDS011;6529;50.566;9.774;2024-01-10T04:05:38;30.23;;;14.67;;
12925;SDS011;6529;50.566;9.774;2024-01-10T04:08:03;26.57;;;12.77;;
12925;SDS011;6529;50.566;9.774;2024-01-10T04:10:29;27.50;;;13.90;;
12925;SDS011;6529;50.566;9.774;2024-01-10T04:12:55;32.00;;;14.37;;
12925;SDS011;6529;50.566;9.774;2024-01-10T04:15:21;27.57;;;13.73;;
12925;SDS011;6529;50.566;9.774;2024-01-10T04:17:46;21.50;;;11.33;;
12925;SDS011;6529;50.566;9.774;2024-01-10T04:20:12;28.17;;;13.77;;
12925;SDS011;6529;50.566;9.774;2024-01-10T04:22:38;30.47;;;14.13;;
12925;SDS011;6529;50.566;9.774;2024-01-10T04:25:05;29.50;;;14.20;;
12925;SDS011;6529;50.566;9.774;2024-01-10T04:27:31;27.20;;;13.27;;
12925;SDS011;6529;50.566;9.774;2024-01-10T04:29:57;32.10;;;15.17;;
12925;SDS011;6529;50.566;9.774;2024-01-10T04:32:23;26.30;;;13.20;;
12925;SDS011;6529;50.566;9.774;2024-01-10T04:34:48;30.63;;;13.87;;
12925;SDS011;6529;50.566;9.774;2024-01-10T04:37:14;32.67;;;14.77;;
12925;SDS011;6529;50.566;9.774;2024-01-10T04:39:40;23.97;;;11.90;;
12925;SDS011;6529;50.566;9.774;2024-01-10T04:42:07;33.73;;;14.67;;
12925;SDS011;6529;50.566;9.774;2024-01-10T04:44:33;27.97;;;13.97;;
12925;SDS011;6529;50.566;9.774;2024-01-10T04:46:59;32.30;;;13.73;;
12925;SDS011;6529;50.566;9.774;2024-01-10T04:49:24;31.23;;;14.00;;
12925;SDS011;6529;50.566;9.774;2024-01-10T04:51:50;29.87;;;14.97;;
12925;SDS011;6529;50.566;9.774;2024-01-10T04:54:16;25.67;;;13.47;;
12925;SDS011;6529;50.566;9.774;2024-01-10T04:56:41;31.73;;;13.87;;
12925;SDS011;6529;50.566;9.774;2024-01-10T04:59:07;30.73;;;13.87;;
12925;SDS011;6529;50.566;9.774;2024-01-10T05:01:33;29.10;;;14.67;;
12925;SDS011;6529;50.566;9.774;2024-01-10T05:03:58;30.67;;;14.73;;
12925;SDS011;6529;50.566;9.774;2024-01-10T05:06:24;34.17;;;13.87;;
12925;SDS011;6529;50.566;9.774;2024-01-10T05:08:50;27.57;;;13.67;;
12925;SDS011;6529;50.566;9.774;2024-01-10T05:11:15;30.80;;;14.50;;
12925;SDS011;6529;50.566;9.774;2024-01-10T05:13:44;32.00;;;15.10;;
12925;SDS011;6529;50.566;9.774;2024-01-10T05:16:10;34.00;;;14.97;;
12925;SDS011;6529;50.566;9.774;2024-01-10T05:18:35;30.90;;;14.67;;
12925;SDS011;6529;50.566;9.774;2024-01-10T05:21:01;31.07;;;15.13;;
12925;SDS011;6529;50.566;9.774;2024-01-10T05:23:28;31.97;;;14.57;;
12925;SDS011;6529;50.566;9.774;2024-01-10T05:25:54;29.73;;;13.83;;
12925;SDS011;6529;50.566;9.774;2024-01-10T05:28:20;32.87;;;15.53;;
12925;SDS011;6529;50.566;9.774;2024-01-10T05:30:46;31.93;;;14.63;;
12925;SDS011;6529;50.566;9.774;2024-01-10T05:33:11;30.77;;;15.40;;
12925;SDS011;6529;50.566;9.774;2024-01-10T05:35:40;30.50;;;15.63;;
12925;SDS011;6529;50.566;9.774;2024-01-10T05:38:06;30.20;;;14.87;;
12925;SDS011;6529;50.566;9.774;2024-01-10T05:40:32;29.47;;;14.40;;
12925;SDS011;6529;50.566;9.774;2024-01-10T05:42:58;26.23;;;12.67;;
12925;SDS011;6529;50.566;9.774;2024-01-10T05:45:26;28.13;;;13.83;;
12925;SDS011;6529;50.566;9.774;2024-01-10T05:47:53;29.50;;;15.13;;
12925;SDS011;6529;50.566;9.774;2024-01-10T05:50:18;30.47;;;14.73;;
12925;SDS011;6529;50.566;9.774;2024-01-10T05:52:44;32.63;;;14.97;;
12925;SDS011;6529;50.566;9.774;2024-01-10T05:55:10;30.50;;;14.50;;
12925;SDS011;6529;50.566;9.774;2024-01-10T05:57:36;33.10;;;14.03;;
12925;SDS011;6529;50.566;9.774;2024-01-10T06:00:02;31.83;;;14.70;;
12925;SDS011;6529;50.566;9.774;2024-01-10T06:02:29;28.20;;;13.80;;
12925;SDS011;6529;50.566;9.774;2024-01-10T06:04:55;30.80;;;14.63;;
12925;SDS011;6529;50.566;9.774;2024-01-10T06:07:21;30.37;;;14.70;;
12925;SDS011;6529;50.566;9.774;2024-01-10T06:09:46;31.63;;;15.43;;
12925;SDS011;6529;50.566;9.774;2024-01-10T06:12:12;35.17;;;16.17;;
12925;SDS011;6529;50.566;9.774;2024-01-10T06:14:38;31.80;;;16.47;;
12925;SDS011;6529;50.566;9.774;2024-01-10T06:17:04;31.50;;;15.60;;
12925;SDS011;6529;50.566;9.774;2024-01-10T06:19:31;34.30;;;16.00;;
12925;SDS011;6529;50.566;9.774;2024-01-10T06:21:56;32.80;;;14.97;;
12925;SDS011;6529;50.566;9.774;2024-01-10T06:24:22;35.90;;;16.17;;
12925;SDS011;6529;50.566;9.774;2024-01-10T06:26:48;32.40;;;15.83;;
12925;SDS011;6529;50.566;9.774;2024-01-10T06:29:14;29.77;;;14.67;;
12925;SDS011;6529;50.566;9.774;2024-01-10T06:31:40;33.10;;;16.27;;
12925;SDS011;6529;50.566;9.774;2024-01-10T06:34:06;31.07;;;15.97;;
12925;SDS011;6529;50.566;9.774;2024-01-10T06:36:31;32.67;;;14.87;;
12925;SDS011;6529;50.566;9.774;2024-01-10T06:38:57;33.47;;;15.17;;
12925;SDS011;6529;50.566;9.774;2024-01-10T06:41:22;31.10;;;15.47;;
12925;SDS011;6529;50.566;9.774;2024-01-10T06:43:49;29.17;;;15.23;;
12925;SDS011;6529;50.566;9.774;2024-01-10T06:46:16;35.50;;;16.83;;
12925;SDS011;6529;50.566;9.774;2024-01-10T06:48:41;22.97;;;11.17;;
12925;SDS011;6529;50.566;9.774;2024-01-10T06:51:11;27.30;;;14.17;;
12925;SDS011;6529;50.566;9.774;2024-01-10T06:53:37;29.53;;;14.93;;
12925;SDS011;6529;50.566;9.774;2024-01-10T06:56:03;32.40;;;15.80;;
12925;SDS011;6529;50.566;9.774;2024-01-10T06:58:29;30.90;;;16.00;;
12925;SDS011;6529;50.566;9.774;2024-01-10T07:00:55;36.60;;;16.17;;
12925;SDS011;6529;50.566;9.774;2024-01-10T07:03:20;37.10;;;16.33;;
12925;SDS011;6529;50.566;9.774;2024-01-10T07:05:46;32.37;;;15.97;;
12925;SDS011;6529;50.566;9.774;2024-01-10T07:08:11;31.07;;;16.57;;
12925;SDS011;6529;50.566;9.774;2024-01-10T07:10:37;33.67;;;15.13;;
12925;SDS011;6529;50.566;9.774;2024-01-10T07:13:03;31.23;;;15.30;;
12925;SDS011;6529;50.566;9.774;2024-01-10T07:15:29;31.60;;;16.27;;
12925;SDS011;6529;50.566;9.774;2024-01-10T07:17:55;31.40;;;15.67;;
12925;SDS011;6529;50.566;9.774;2024-01-10T07:20:20;31.73;;;15.23;;
12925;SDS011;6529;50.566;9.774;2024-01-10T07:22:49;20.23;;;10.47;;
12925;SDS011;6529;50.566;9.774;2024-01-10T07:25:15;44.73;;;20.97;;
12925;SDS011;6529;50.566;9.774;2024-01-10T07:27:40;36.17;;;16.87;;
12925;SDS011;6529;50.566;9.774;2024-01-10T07:30:06;33.03;;;17.30;;
12925;SDS011;6529;50.566;9.774;2024-01-10T07:32:38;36.07;;;16.60;;
12925;SDS011;6529;50.566;9.774;2024-01-10T07:35:05;28.53;;;17.10;;
12925;SDS011;6529;50.566;9.774;2024-01-10T07:37:34;32.13;;;17.40;;
12925;SDS011;6529;50.566;9.774;2024-01-10T07:40:00;31.57;;;17.07;;
12925;SDS011;6529;50.566;9.774;2024-01-10T07:42:26;33.80;;;16.73;;
12925;SDS011;6529;50.566;9.774;2024-01-10T07:44:51;31.17;;;16.77;;
12925;SDS011;6529;50.566;9.774;2024-01-10T07:47:18;32.93;;;16.20;;
12925;SDS011;6529;50.566;9.774;2024-01-10T07:49:44;32.97;;;16.33;;
12925;SDS011;6529;50.566;9.774;2024-01-10T07:52:10;36.13;;;18.07;;
12925;SDS011;6529;50.566;9.774;2024-01-10T07:54:35;38.03;;;17.47;;
12925;SDS011;6529;50.566;9.774;2024-01-10T07:57:01;31.67;;;16.20;;
12925;SDS011;6529;50.566;9.774;2024-01-10T07:59:27;30.80;;;16.00;;
12925;SDS011;6529;50.566;9.774;2024-01-10T08:01:56;32.60;;;15.90;;
12925;SDS011;6529;50.566;9.774;2024-01-10T08:04:25;35.03;;;17.63;;
12925;SDS011;6529;50.566;9.774;2024-01-10T08:06:51;33.70;;;17.73;;
12925;SDS011;6529;50.566;9.774;2024-01-10T08:09:17;36.43;;;17.50;;
12925;SDS011;6529;50.566;9.774;2024-01-10T08:11:44;35.50;;;17.67;;
12925;SDS011;6529;50.566;9.774;2024-01-10T08:14:10;38.93;;;17.37;;
12925;SDS011;6529;50.566;9.774;2024-01-10T08:16:36;35.30;;;16.90;;
12925;SDS011;6529;50.566;9.774;2024-01-10T08:19:01;35.40;;;17.47;;
12925;SDS011;6529;50.566;9.774;2024-01-10T08:21:27;34.53;;;17.47;;
12925;SDS011;6529;50.566;9.774;2024-01-10T08:23:52;34.43;;;17.17;;
12925;SDS011;6529;50.566;9.774;2024-01-10T08:26:18;37.07;;;17.93;;
12925;SDS011;6529;50.566;9.774;2024-01-10T08:28:43;38.43;;;17.73;;
12925;SDS011;6529;50.566;9.774;2024-01-10T08:31:09;39.90;;;17.17;;
12925;SDS011;6529;50.566;9.774;2024-01-10T08:33:34;34.37;;;16.87;;
12925;SDS011;6529;50.566;9.774;2024-01-10T08:36:00;33.00;;;16.00;;
12925;SDS011;6529;50.566;9.774;2024-01-10T08:38:26;30.97;;;14.97;;
12925;SDS011;6529;50.566;9.774;2024-01-10T08:40:51;30.20;;;15.50;;
12925;SDS011;6529;50.566;9.774;2024-01-10T08:43:17;35.23;;;16.40;;
12925;SDS011;6529;50.566;9.774;2024-01-10T08:45:43;36.37;;;17.20;;
12925;SDS011;6529;50.566;9.774;2024-01-10T08:48:09;39.00;;;16.00;;
12925;SDS011;6529;50.566;9.774;2024-01-10T08:50:37;36.80;;;16.77;;
12925;SDS011;6529;50.566;9.774;2024-01-10T08:53:02;35.63;;;17.43;;
12925;SDS011;6529;50.566;9.774;2024-01-10T08:55:30;37.07;;;15.33;;
12925;SDS011;6529;50.566;9.774;2024-01-10T08:57:56;34.53;;;16.63;;
12925;SDS011;6529;50.566;9.774;2024-01-10T09:00:22;36.13;;;16.67;;
12925;SDS011;6529;50.566;9.774;2024-01-10T09:02:49;31.07;;;15.47;;
12925;SDS011;6529;50.566;9.774;2024-01-10T09:05:15;31.97;;;14.57;;
12925;SDS011;6529;50.566;9.774;2024-01-10T09:07:41;32.93;;;16.57;;
12925;SDS011;6529;50.566;9.774;2024-01-10T09:10:07;34.33;;;16.73;;
12925;SDS011;6529;50.566;9.774;2024-01-10T09:12:33;34.70;;;16.90;;
12925;SDS011;6529;50.566;9.774;2024-01-10T09:14:59;36.40;;;16.63;;
12925;SDS011;6529;50.566;9.774;2024-01-10T09:17:25;32.13;;;15.97;;
12925;SDS011;6529;50.566;9.774;2024-01-10T09:19:52;33.93;;;15.47;;
12925;SDS011;6529;50.566;9.774;2024-01-10T09:22:18;34.03;;;16.00;;
12925;SDS011;6529;50.566;9.774;2024-01-10T09:24:44;34.80;;;16.33;;
12925;SDS011;6529;50.566;9.774;2024-01-10T09:27:10;32.20;;;16.37;;
12925;SDS011;6529;50.566;9.774;2024-01-10T09:29:35;30.53;;;14.97;;
12925;SDS011;6529;50.566;9.774;2024-01-10T09:32:01;38.00;;;16.07;;
12925;SDS011;6529;50.566;9.774;2024-01-10T09:34:27;32.00;;;15.47;;
12925;SDS011;6529;50.566;9.774;2024-01-10T09:36:53;29.40;;;15.47;;
12925;SDS011;6529;50.566;9.774;2024-01-10T09:39:19;28.77;;;16.07;;
12925;SDS011;6529;50.566;9.774;2024-01-10T09:41:48;35.03;;;15.33;;
12925;SDS011;6529;50.566;9.774;2024-01-10T09:44:15;41.67;;;18.60;;
12925;SDS011;6529;50.566;9.774;2024-01-10T09:46:52;37.00;;;18.00;;
12925;SDS011;6529;50.566;9.774;2024-01-10T09:49:19;32.93;;;16.00;;
12925;SDS011;6529;50.566;9.774;2024-01-10T09:51:48;30.53;;;15.27;;
12925;SDS011;6529;50.566;9.774;2024-01-10T09:54:15;30.87;;;15.93;;
12925;SDS011;6529;50.566;9.774;2024-01-10T09:56:41;30.73;;;15.53;;
12925;SDS011;6529;50.566;9.774;2024-01-10T09:59:07;36.37;;;17.63;;
12925;SDS011;6529;50.566;9.774;2024-01-10T10:05:13;32.90;;;16.13;;
12925;SDS011;6529;50.566;9.774;2024-01-10T10:10:12;34.10;;;16.57;;
12925;SDS011;6529;50.566;9.774;2024-01-10T10:15:16;31.03;;;15.00;;
12925;SDS011;6529;50.566;9.774;2024-01-10T10:17:44;33.67;;;15.47;;
12925;SDS011;6529;50.566;9.774;2024-01-10T10:20:14;38.60;;;17.47;;
12925;SDS011;6529;50.566;9.774;2024-01-10T10:23:03;29.93;;;16.23;;
12925;SDS011;6529;50.566;9.774;2024-01-10T10:25:45;34.40;;;16.40;;
12925;SDS011;6529;50.566;9.774;2024-01-10T10:28:12;32.60;;;16.17;;
12925;SDS011;6529;50.566;9.774;2024-01-10T10:30:38;36.03;;;16.43;;
12925;SDS011;6529;50.566;9.774;2024-01-10T10:33:05;34.83;;;16.90;;
12925;SDS011;6529;50.566;9.774;2024-01-10T10:35:33;35.63;;;15.83;;
12925;SDS011;6529;50.566;9.774;2024-01-10T10:37:59;36.60;;;17.27;;
12925;SDS011;6529;50.566;9.774;2024-01-10T10:40:25;35.70;;;17.77;;
12925;SDS011;6529;50.566;9.774;2024-01-10T10:42:57;34.87;;;18.17;;
12925;SDS011;6529;50.566;9.774;2024-01-10T10:45:23;29.53;;;15.60;;
12925;SDS011;6529;50.566;9.774;2024-01-10T10:48:01;34.10;;;17.47;;
12925;SDS011;6529;50.566;9.774;2024-01-10T10:50:36;32.93;;;16.87;;
12925;SDS011;6529;50.566;9.774;2024-01-10T10:53:02;34.17;;;16.53;;
12925;SDS011;6529;50.566;9.774;2024-01-10T10:55:28;33.97;;;16.57;;
12925;SDS011;6529;50.566;9.774;2024-01-10T10:57:55;34.00;;;15.83;;
12925;SDS011;6529;50.566;9.774;2024-01-10T11:00:22;35.30;;;18.33;;
12925;SDS011;6529;50.566;9.774;2024-01-10T11:02:55;35.80;;;17.80;;
12925;SDS011;6529;50.566;9.774;2024-01-10T11:05:22;35.23;;;17.07;;
12925;SDS011;6529;50.566;9.774;2024-01-10T11:07:49;32.47;;;16.47;;
12925;SDS011;6529;50.566;9.774;2024-01-10T11:10:18;36.57;;;18.17;;
12925;SDS011;6529;50.566;9.774;2024-01-10T11:13:03;28.90;;;15.87;;
12925;SDS011;6529;50.566;9.774;2024-01-10T11:23:59;35.07;;;17.53;;
12925;SDS011;6529;50.566;9.774;2024-01-10T11:26:26;34.93;;;18.07;;
12925;SDS011;6529;50.566;9.774;2024-01-10T11:28:51;31.80;;;17.57;;
12925;SDS011;6529;50.566;9.774;2024-01-10T11:31:26;30.57;;;16.47;;
12925;SDS011;6529;50.566;9.774;2024-01-10T11:33:55;33.30;;;18.30;;
12925;SDS011;6529;50.566;9.774;2024-01-10T11:36:21;37.63;;;20.07;;
12925;SDS011;6529;50.566;9.774;2024-01-10T11:41:23;29.93;;;15.33;;
12925;SDS011;6529;50.566;9.774;2024-01-10T11:46:38;31.27;;;16.67;;
12925;SDS011;6529;50.566;9.774;2024-01-10T11:49:06;33.00;;;18.07;;
12925;SDS011;6529;50.566;9.774;2024-01-10T11:51:32;33.20;;;18.47;;
12925;SDS011;6529;50.566;9.774;2024-01-10T11:54:01;33.40;;;17.60;;
12925;SDS011;6529;50.566;9.774;2024-01-10T11:56:37;29.40;;;15.83;;
12925;SDS011;6529;50.566;9.774;2024-01-10T11:59:05;28.50;;;16.00;;
12925;SDS011;6529;50.566;9.774;2024-01-10T12:01:39;32.37;;;17.20;;
12925;SDS011;6529;50.566;9.774;2024-01-10T12:04:06;30.93;;;16.90;;
12925;SDS011;6529;50.566;9.774;2024-01-10T12:06:34;30.77;;;18.00;;
12925;SDS011;6529;50.566;9.774;2024-01-10T12:09:03;30.67;;;17.37;;
12925;SDS011;6529;50.566;9.774;2024-01-10T12:11:34;33.23;;;18.20;;
12925;SDS011;6529;50.566;9.774;2024-01-10T12:14:00;34.60;;;20.73;;
12925;SDS011;6529;50.566;9.774;2024-01-10T12:16:27;46.63;;;33.77;;
12925;SDS011;6529;50.566;9.774;2024-01-10T12:18:54;36.33;;;21.33;;
12925;SDS011;6529;50.566;9.774;2024-01-10T12:21:19;38.03;;;20.97;;
12925;SDS011;6529;50.566;9.774;2024-01-10T12:23:46;34.10;;;19.13;;
12925;SDS011;6529;50.566;9.774;2024-01-10T12:26:12;31.57;;;17.87;;
12925;SDS011;6529;50.566;9.774;2024-01-10T12:28:38;33.27;;;19.10;;
12925;SDS011;6529;50.566;9.774;2024-01-10T12:31:04;34.47;;;19.20;;
12925;SDS011;6529;50.566;9.774;2024-01-10T12:33:32;35.23;;;18.77;;
12925;SDS011;6529;50.566;9.774;2024-01-10T12:38:32;36.17;;;18.90;;
12925;SDS011;6529;50.566;9.774;2024-01-10T12:40:58;31.57;;;17.77;;
12925;SDS011;6529;50.566;9.774;2024-01-10T12:43:23;30.67;;;18.23;;
12925;SDS011;6529;50.566;9.774;2024-01-10T12:46:06;32.40;;;18.30;;
12925;SDS011;6529;50.566;9.774;2024-01-10T12:48:32;35.40;;;17.57;;
12925;SDS011;6529;50.566;9.774;2024-01-10T12:51:06;33.90;;;18.67;;
12925;SDS011;6529;50.566;9.774;2024-01-10T12:53:36;37.50;;;21.93;;
12925;SDS011;6529;50.566;9.774;2024-01-10T12:56:09;32.77;;;18.33;;
12925;SDS011;6529;50.566;9.774;2024-01-10T12:58:39;33.20;;;17.90;;
12925;SDS011;6529;50.566;9.774;2024-01-10T13:01:07;33.97;;;18.80;;
12925;SDS011;6529;50.566;9.774;2024-01-10T13:03:33;32.27;;;18.90;;
12925;SDS011;6529;50.566;9.774;2024-01-10T13:05:59;35.30;;;19.20;;
12925;SDS011;6529;50.566;9.774;2024-01-10T13:08:25;33.33;;;18.80;;
12925;SDS011;6529;50.566;9.774;2024-01-10T13:10:51;33.30;;;18.87;;
12925;SDS011;6529;50.566;9.774;2024-01-10T13:13:16;35.67;;;19.73;;
12925;SDS011;6529;50.566;9.774;2024-01-10T13:15:44;29.30;;;18.77;;
12925;SDS011;6529;50.566;9.774;2024-01-10T13:18:10;32.73;;;19.07;;
12925;SDS011;6529;50.566;9.774;2024-01-10T13:20:36;33.10;;;18.23;;
12925;SDS011;6529;50.566;9.774;2024-01-10T13:23:03;30.63;;;18.37;;
12925;SDS011;6529;50.566;9.774;2024-01-10T13:25:29;35.13;;;18.73;;
12925;SDS011;6529;50.566;9.774;2024-01-10T13:27:54;39.53;;;22.33;;
12925;SDS011;6529;50.566;9.774;2024-01-10T13:30:20;39.87;;;23.00;;
12925;SDS011;6529;50.566;9.774;2024-01-10T13:32:45;33.40;;;18.47;;
12925;SDS011;6529;50.566;9.774;2024-01-10T13:35:14;32.60;;;18.33;;
12925;SDS011;6529;50.566;9.774;2024-01-10T13:37:41;36.03;;;19.13;;
12925;SDS011;6529;50.566;9.774;2024-01-10T13:40:10;32.67;;;17.27;;
12925;SDS011;6529;50.566;9.774;2024-01-10T13:42:39;31.47;;;16.93;;
12925;SDS011;6529;50.566;9.774;2024-01-10T13:45:06;32.23;;;17.67;;
12925;SDS011;6529;50.566;9.774;2024-01-10T13:47:32;29.73;;;16.57;;
12925;SDS011;6529;50.566;9.774;2024-01-10T13:49:59;32.23;;;18.10;;
12925;SDS011;6529;50.566;9.774;2024-01-10T13:52:25;33.50;;;18.03;;
12925;SDS011;6529;50.566;9.774;2024-01-10T13:54:50;29.53;;;17.07;;
12925;SDS011;6529;50.566;9.774;2024-01-10T13:57:17;34.87;;;18.47;;
12925;SDS011;6529;50.566;9.774;2024-01-10T13:59:43;32.53;;;17.20;;
12925;SDS011;6529;50.566;9.774;2024-01-10T14:02:09;34.20;;;19.73;;
12925;SDS011;6529;50.566;9.774;2024-01-10T14:04:35;34.20;;;18.13;;
12925;SDS011;6529;50.566;9.774;2024-01-10T14:07:01;33.03;;;18.57;;
12925;SDS011;6529;50.566;9.774;2024-01-10T14:09:29;37.80;;;23.27;;
12925;SDS011;6529;50.566;9.774;2024-01-10T14:11:55;32.77;;;18.17;;
12925;SDS011;6529;50.566;9.774;2024-01-10T14:14:21;37.50;;;20.13;;
12925;SDS011;6529;50.566;9.774;2024-01-10T14:16:46;45.23;;;24.07;;
12925;SDS011;6529;50.566;9.774;2024-01-10T14:19:12;32.73;;;18.43;;
12925;SDS011;6529;50.566;9.774;2024-01-10T14:21:37;53.57;;;28.57;;
12925;SDS011;6529;50.566;9.774;2024-01-10T14:24:03;44.87;;;25.37;;
12925;SDS011;6529;50.566;9.774;2024-01-10T14:26:29;34.77;;;19.67;;
12925;SDS011;6529;50.566;9.774;2024-01-10T14:28:54;39.83;;;21.00;;
12925;SDS011;6529;50.566;9.774;2024-01-10T14:31:20;38.87;;;19.50;;
12925;SDS011;6529;50.566;9.774;2024-01-10T14:33:46;34.07;;;19.37;;
12925;SDS011;6529;50.566;9.774;2024-01-10T14:36:12;38.10;;;18.97;;
12925;SDS011;6529;50.566;9.774;2024-01-10T14:38:38;37.03;;;20.17;;
12925;SDS011;6529;50.566;9.774;2024-01-10T14:41:04;32.07;;;18.13;;
12925;SDS011;6529;50.566;9.774;2024-01-10T14:43:32;35.33;;;19.27;;
12925;SDS011;6529;50.566;9.774;2024-01-10T14:45:57;39.10;;;22.37;;
12925;SDS011;6529;50.566;9.774;2024-01-10T14:48:23;39.07;;;21.23;;
12925;SDS011;6529;50.566;9.774;2024-01-10T14:50:49;36.03;;;20.50;;
12925;SDS011;6529;50.566;9.774;2024-01-10T14:53:15;35.43;;;20.00;;
12925;SDS011;6529;50.566;9.774;2024-01-10T14:55:40;41.73;;;21.33;;